Time;durP1;ratioP1;P1;durP2;ratioP2;P2;SDS_P1;SDS_P2;PMS_P1;PMS_P2;Temp;Humidity;BMP_temperature;BMP_pressure;BME280_temperature;BME280_humidity;BME280_pressure;Samples;Min_cycle;Max_cycle;Signal;HPM_P1;HPM_P2
2024/03/14 00:00:42;;;;;;;11.60;8.80;;;;;;;11.64;44.72;99752.58;108342;1251;73578;-64
2024/03/14 00:03:13;;;;;;;14.80;8.40;;;;;;;11.63;44.80;99744.90;108357;1250;69210;-63
2024/03/14 00:06:46;;;;;;;11.90;8.80;;;;;;;11.57;44.59;99742.02;108394;1251;73381;-63
2024/03/14 00:09:22;;;;;;;16.40;9.20;;;;;;;11.46;44.59;99739.52;108373;1253;61168;-62
2024/03/14 00:12:27;;;;;;;;;;;;;;;11.44;44.59;99737.14;108412;1255;60011;-63
2024/03/14 00:14:56;;;;;;;14.40;8.70;;;;;;;11.42;44.73;99744.80;108123;1250;72661;-63
2024/03/14 00:18:32;;;;;;;14.30;9.30;;;;;;;11.43;44.75;99731.05;108340;1255;69179;-63
2024/03/14 00:21:09;;;;;;;15.80;10.20;;;;;;;11.44;44.60;99726.09;108377;1252;71121;-63
2024/03/14 00:24:52;;;;;;;16.70;10.40;;;;;;;11.46;44.81;99727.75;108482;1251;61089;-63
2024/03/14 00:28:03;;;;;;;15.00;10.30;;;;;;;11.49;44.89;99722.52;108291;1251;60716;-65
2024/03/14 00:31:15;;;;;;;18.90;11.30;;;;;;;11.51;44.62;99728.07;108352;1251;72986;-63
2024/03/14 00:33:48;;;;;;;16.40;9.60;;;;;;;11.57;44.38;99726.19;108343;1256;71247;-62
2024/03/14 00:37:30;;;;;;;16.70;9.90;;;;;;;11.75;43.71;99723.64;108225;1250;72319;-63
2024/03/14 00:40:07;;;;;;;18.10;10.20;;;;;;;11.48;44.44;99727.48;108402;1251;60573;-63
2024/03/14 00:43:13;;;;;;;17.30;9.90;;;;;;;11.46;44.34;99722.83;108513;1251;60835;-64
2024/03/14 00:46:05;;;;;;;17.10;10.70;;;;;;;11.37;44.50;99729.90;108391;1250;73604;-64
2024/03/14 00:49:47;;;;;;;15.90;10.80;;;;;;;11.72;44.29;99728.68;108460;1251;69408;-65
2024/03/14 00:52:51;;;;;;;13.80;10.40;;;;;;;11.61;44.19;99732.32;108507;1252;73093;-64
2024/03/14 00:56:33;;;;;;;16.70;10.50;;;;;;;11.39;44.36;99727.36;108546;1251;61128;-64
2024/03/14 00:59:44;;;;;;;17.80;11.20;;;;;;;11.27;44.54;99728.09;108187;1251;60060;-62
2024/03/14 01:02:55;;;;;;;20.30;10.70;;;;;;;11.30;44.66;99727.94;108458;1250;73586;-62
2024/03/14 01:05:29;;;;;;;18.30;10.50;;;;;;;11.62;44.08;99726.50;108298;1251;69183;-63
2024/03/14 01:08:43;;;;;;;16.30;10.40;;;;;;;11.46;43.94;99718.97;108436;1251;71416;-62
2024/03/14 01:11:11;;;;;;;18.50;10.50;;;;;;;11.25;44.17;99726.02;108341;1251;61158;-62
2024/03/14 01:14:53;;;;;;;15.20;10.50;;;;;;;11.21;44.30;99722.39;108529;1251;61538;-62
2024/03/14 01:17:29;;;;;;;18.50;10.10;;;;;;;11.16;44.13;99717.68;108295;1254;74043;-62
2024/03/14 01:21:11;;;;;;;14.00;10.00;;;;;;;11.07;44.19;99715.59;108498;1251;69529;-62
2024/03/14 01:23:44;;;;;;;13.80;9.80;;;;;;;11.06;44.28;99711.79;108359;1252;72770;-62
2024/03/14 01:26:49;;;;;;;16.70;10.20;;;;;;;10.98;44.19;99707.23;108466;1251;61229;-62
2024/03/14 01:30:03;;;;;;;16.40;9.20;;;;;;;10.92;44.12;99700.50;108424;1250;59701;-61
2024/03/14 01:32:40;;;;;;;17.40;9.40;;;;;;;10.92;44.29;99699.09;108336;1250;73717;-62
2024/03/14 01:35:44;;;;;;;12.70;8.80;;;;;;;10.89;44.31;99702.86;108404;1251;69451;-63
2024/03/14 01:39:14;;;;;;;14.30;9.40;;;;;;;10.84;44.22;99698.89;108360;1251;72798;-62
2024/03/14 01:42:27;;;;;;;12.10;9.10;;;;;;;10.78;44.45;99703.57;108340;1251;60712;-63
2024/03/14 01:45:04;;;;;;;14.60;9.10;;;;;;;10.79;44.34;99704.89;108397;1251;61704;-62
2024/03/14 01:48:41;;;;;;;17.80;8.70;;;;;;;10.83;44.33;99707.02;108425;1251;73583;-62
2024/03/14 01:51:09;;;;;;;11.00;8.90;;;;;;;10.83;44.20;99710.15;108385;1251;69032;-66
2024/03/14 01:54:51;;;;;;;11.10;8.40;;;;;;;10.86;44.04;99712.83;108524;1251;72272;-64
2024/03/14 01:58:02;;;;;;;13.70;8.80;;;;;;;10.84;44.21;99713.24;108291;1250;60628;-65
2024/03/14 02:00:40;;;;;;;12.10;8.00;;;;;;;10.80;44.20;99711.34;108171;1251;58744;-64
2024/03/14 02:04:22;;;;;;;12.80;8.10;;;;;;;10.86;44.37;99706.34;108248;1251;73641;-63
2024/03/14 02:07:09;;;;;;;12.50;8.70;;;;;;;10.97;43.78;99703.59;108371;1251;69822;-62
2024/03/14 02:10:14;;;;;;;12.50;7.80;;;;;;;10.99;43.92;99704.20;108320;1251;72546;-62
2024/03/14 02:13:19;;;;;;;11.40;8.00;;;;;;;11.01;43.77;99703.41;108497;1251;61517;-61
2024/03/14 02:16:24;;;;;;;13.80;8.40;;;;;;;11.03;43.84;99701.23;108501;1251;60801;-63
2024/03/14 02:19:19;;;;;;;11.00;7.50;;;;;;;11.04;43.91;99705.91;108414;1254;72934;-65
2024/03/14 02:22:39;;;;;;;8.90;7.40;;;;;;;11.00;43.78;99703.81;108479;1251;69421;-65
2024/03/14 02:25:07;;;;;;;11.90;8.60;;;;;;;11.00;43.71;99704.16;108431;1252;72322;-64
2024/03/14 02:28:13;;;;;;;13.90;8.50;;;;;;;11.03;43.35;99698.79;108483;1251;61292;-64
2024/03/14 02:31:33;;;;;;;18.30;8.30;;;;;;;11.04;43.14;99698.54;108426;1251;59887;-64
2024/03/14 02:34:38;;;;;;;15.80;8.90;;;;;;;11.02;43.68;99697.23;108245;1251;72908;-64
2024/03/14 02:37:12;;;;;;;12.20;8.20;;;;;;;10.95;43.42;99696.48;108379;1251;68507;-63
2024/03/14 02:39:49;;;;;;;13.60;8.90;;;;;;;11.00;43.63;99704.34;108360;1254;72418;-63
2024/03/14 02:43:31;;;;;;;13.20;9.10;;;;;;;11.22;43.09;99706.71;108467;1252;61494;-63
2024/03/14 02:46:16;;;;;;;12.40;8.80;;;;;;;11.12;43.00;99702.58;108420;1251;59656;-64
2024/03/14 02:48:44;;;;;;;11.20;8.30;;;;;;;11.00;43.24;99704.70;108359;1252;73680;-63
2024/03/14 02:52:26;;;;;;;12.70;9.10;;;;;;;10.92;43.57;99702.60;108487;1252;68328;-63
2024/03/14 02:55:37;;;;;;;13.00;9.00;;;;;;;10.55;44.04;99705.70;108429;1251;73563;-62
2024/03/14 02:58:41;;;;;;;13.90;9.30;;;;;;;10.45;44.39;99706.14;108383;1251;59863;-63
2024/03/14 03:01:47;;;;;;;13.70;8.70;;;;;;;10.37;44.51;99707.52;108189;1251;59734;-62
2024/03/14 03:04:58;;;;;;;13.20;8.70;;;;;;;10.34;44.22;99705.34;108392;1251;74473;-64
2024/03/14 03:08:09;;;;;;;12.70;7.90;;;;;;;10.34;44.49;99702.05;108418;1251;69370;-64
2024/03/14 03:11:20;;;;;;;10.80;7.90;;;;;;;10.27;44.26;99702.63;108422;1251;72468;-63
2024/03/14 03:13:55;;;;;;;13.10;7.70;;;;;;;10.20;44.52;99703.80;108338;1254;61004;-63
2024/03/14 03:17:00;;;;;;;11.10;8.00;;;;;;;10.15;44.56;99702.59;108379;1251;59659;-64
2024/03/14 03:21:27;;;;;;;13.10;7.90;;;;;;;9.89;46.15;99701.29;101260;1296;614053;-64
2024/03/14 03:23:57;;;;;;;10.70;8.20;;;;;;;10.91;43.18;99705.45;105282;1260;60556;-63
2024/03/14 03:26:32;;;;;;;11.30;7.20;;;;;;;10.90;42.85;99704.44;103763;1284;60381;-63
2024/03/14 03:29:36;;;;;;;13.10;8.50;;;;;;;10.92;42.55;99705.21;104809;1263;72057;-64
2024/03/14 03:32:40;;;;;;;11.50;8.00;;;;;;;10.68;42.71;99683.41;104901;1264;69873;-64
2024/03/14 03:36:22;;;;;;;12.60;7.40;;;;;;;10.67;42.89;99707.66;105101;1259;552743;-62
2024/03/14 03:38:56;;;;;;;10.90;8.30;;;;;;;10.60;43.11;99710.62;104103;1277;60777;-61
2024/03/14 03:42:02;;;;;;;12.10;8.40;;;;;;;10.54;43.05;99701.54;104287;1261;60916;-62
2024/03/14 03:45:09;;;;;;;10.70;7.90;;;;;;;10.76;42.64;99708.88;104550;1261;73624;-61
2024/03/14 03:47:42;;;;;;;10.30;7.50;;;;;;;10.82;42.30;99703.86;106141;1259;70487;-61
2024/03/14 03:50:09;;;;;;;11.80;8.40;;;;;;;10.58;42.57;99707.73;104014;1260;73136;-61
2024/03/14 03:52:48;;;;;;;12.40;8.40;;;;;;;10.52;42.99;99708.31;105388;1253;60135;-61
2024/03/14 03:55:18;;;;;;;9.60;7.00;;;;;;;10.48;43.04;99701.45;106617;1256;60238;-62
2024/03/14 03:58:25;;;;;;;9.80;7.40;;;;;;;10.47;43.06;99700.79;105100;1253;73307;-62
2024/03/14 04:01:20;;;;;;;14.80;7.30;;;;;;;10.49;42.91;99702.81;105345;1251;69607;-61
2024/03/14 04:04:24;;;;;;;10.60;7.10;;;;;;;10.44;42.78;99702.31;106141;1251;72091;-61
2024/03/14 04:06:56;;;;;;;9.80;7.40;;;;;;;10.36;43.03;99701.23;105077;1251;59770;-61
2024/03/14 04:09:38;;;;;;;12.80;7.80;;;;;;;10.35;43.05;99699.18;105348;1254;59786;-61
2024/03/14 04:12:07;;;;;;;7.50;6.70;;;;;;;10.21;43.26;99700.95;104901;1256;72491;-60
2024/03/14 04:15:36;;;;;;;9.20;7.30;;;;;;;10.09;43.54;99698.44;105509;1252;68474;-61
2024/03/14 04:18:44;;;;;;;9.50;6.90;;;;;;;9.89;43.98;99704.85;105212;1254;72278;-60
2024/03/14 04:21:36;;;;;;;9.50;7.10;;;;;;;9.78;44.31;99712.09;104903;1255;61101;-60
2024/03/14 04:24:03;;;;;;;17.10;8.70;;;;;;;9.70;44.41;99714.31;104952;1251;60026;-60
2024/03/14 04:26:30;;;;;;;9.80;6.90;;;;;;;9.68;44.41;99719.13;105629;1251;73511;-61
2024/03/14 04:29:35;;;;;;;12.20;7.10;;;;;;;9.71;44.48;99723.40;105782;1251;59719;-61
2024/03/14 04:32:40;;;;;;;9.70;7.50;;;;;;;9.70;44.75;99726.74;104991;1251;72126;-61
2024/03/14 04:35:50;;;;;;;8.30;6.90;;;;;;;9.76;44.40;99731.95;104669;1268;60189;-61
2024/03/14 04:38:54;;;;;;;8.10;6.70;;;;;;;9.84;44.47;99734.13;105442;1254;59869;-62
2024/03/14 04:41:59;;;;;;;12.40;7.20;;;;;;;9.88;44.12;99735.15;104599;1253;72648;-63
2024/03/14 04:44:39;;;;;;;9.10;6.80;;;;;;;10.01;44.12;99735.01;105392;1251;68208;-63
2024/03/14 04:47:10;;;;;;;12.10;6.90;;;;;;;10.32;43.50;99730.48;106326;1251;72343;-63
2024/03/14 04:50:18;;;;;;;10.00;7.20;;;;;;;10.45;43.25;99735.55;106239;1253;60647;-62
2024/03/14 04:53:26;;;;;;;12.20;7.40;;;;;;;10.58;42.91;99732.41;104539;1256;59984;-62
2024/03/14 04:55:59;;;;;;;9.10;7.30;;;;;;;10.46;43.11;99738.86;104755;1253;73385;-62
2024/03/14 04:59:41;;;;;;;12.10;6.50;;;;;;;10.46;43.10;99741.50;104885;1256;69189;-61
2024/03/14 05:02:15;;;;;;;10.10;6.70;;;;;;;10.54;43.14;99743.96;105039;1253;72805;-61
2024/03/14 05:05:20;;;;;;;9.80;7.40;;;;;;;10.69;42.86;99745.64;104555;1255;59941;-62
2024/03/14 05:07:50;;;;;;;8.50;6.50;;;;;;;10.69;42.36;99744.40;105825;1251;59847;-62
2024/03/14 05:10:18;;;;;;;7.90;6.00;;;;;;;10.89;42.49;99743.56;105768;1251;71661;-63
2024/03/14 05:13:23;;;;;;;7.20;6.30;;;;;;;10.93;42.36;99743.03;104485;1269;70101;-63
2024/03/14 05:16:31;;;;;;;12.80;6.50;;;;;;;10.94;42.30;99747.06;104756;1256;74117;-62
2024/03/14 05:19:36;;;;;;;8.80;6.70;;;;;;;10.99;41.98;99747.17;105072;1251;61431;-61
2024/03/14 05:22:46;;;;;;;7.30;6.00;;;;;;;11.09;42.05;99747.96;105791;1251;59800;-66
2024/03/14 05:25:57;;;;;;;9.70;6.50;;;;;;;10.74;42.81;99749.82;105078;1253;73059;-62
2024/03/14 05:28:30;;;;;;;7.30;6.10;;;;;;;10.60;43.31;99749.70;105835;1251;69294;-63
2024/03/14 05:30:57;;;;;;;11.70;7.10;;;;;;;10.52;43.39;99750.91;106045;1251;72672;-62
2024/03/14 05:33:24;;;;;;;8.40;6.90;;;;;;;10.31;43.92;99752.08;105111;1253;60752;-63
2024/03/14 05:36:29;;;;;;;7.80;6.40;;;;;;;10.21;44.39;99755.41;105471;1251;60207;-63
2024/03/14 05:39:02;;;;;;;12.40;6.40;;;;;;;10.49;43.73;99754.35;105163;1256;73759;-62
2024/03/14 05:42:13;;;;;;;8.50;6.20;;;;;;;10.51;43.82;99761.98;105179;1250;70857;-63
2024/03/14 05:45:24;;;;;;;11.00;6.20;;;;;;;10.59;43.57;99764.28;105604;1251;72271;-62
2024/03/14 05:48:11;;;;;;;7.00;6.20;;;;;;;10.59;43.91;99766.05;104509;1262;61072;-65
2024/03/14 05:51:49;;;;;;;9.80;7.60;;;;;;;10.60;43.96;99772.48;105055;1257;59704;-64
2024/03/14 05:54:20;;;;;;;6.90;5.90;;;;;;;10.51;44.62;99771.27;105416;1254;72760;-64
2024/03/14 05:57:30;;;;;;;8.60;6.60;;;;;;;10.11;45.50;99774.91;104842;1256;70975;-62
2024/03/14 05:59:58;;;;;;;12.50;6.90;;;;;;;10.19;46.00;99773.73;104907;1251;72880;-63
2024/03/14 06:02:25;;;;;;;7.70;6.70;;;;;;;10.27;46.17;99768.52;104451;1254;60728;-61
2024/03/14 06:06:07;;;;;;;8.20;6.30;;;;;;;10.31;46.84;99768.52;105510;1251;60164;-62
2024/03/14 06:08:38;;;;;;;10.50;6.50;;;;;;;10.26;47.13;99764.16;105631;1254;73055;-62
2024/03/14 06:11:45;;;;;;;8.90;6.60;;;;;;;10.38;47.64;99763.89;104462;1254;70248;-62
2024/03/14 06:14:15;;;;;;;6.80;6.00;;;;;;;10.28;47.82;99764.10;105284;1251;74164;-60
2024/03/14 06:16:46;;;;;;;10.30;7.10;;;;;;;10.38;47.99;99768.63;105226;1250;62316;-62
2024/03/14 06:20:29;;;;;;;7.30;6.10;;;;;;;10.46;48.22;99770.95;105628;1251;65105;-62
2024/03/14 06:22:59;;;;;;;9.00;6.50;;;;;;;10.42;48.77;99774.44;104917;1254;72796;-64
2024/03/14 06:25:30;;;;;;;8.70;6.70;;;;;;;10.35;48.62;99776.80;104401;1251;69628;-60
2024/03/14 06:28:04;;;;;;;8.20;6.60;;;;;;;10.43;48.73;99781.04;104518;1253;74001;-60
2024/03/14 06:31:11;;;;;;;8.00;6.90;;;;;;;10.43;48.95;99779.80;105345;1254;62545;-60
2024/03/14 06:34:52;;;;;;;10.70;7.90;;;;;;;10.43;48.77;99774.39;105030;1255;60940;-60
2024/03/14 06:38:04;;;;;;;7.80;6.60;;;;;;;10.30;48.78;99781.02;105106;1253;72718;-60
2024/03/14 06:40:37;;;;;;;8.10;7.00;;;;;;;10.27;49.67;99789.90;104655;1267;68459;-60
2024/03/14 06:43:10;;;;;;;8.20;7.20;;;;;;;10.34;49.88;99790.35;105240;1250;71738;-60
2024/03/14 06:45:38;;;;;;;11.20;8.00;;;;;;;10.31;49.91;99789.55;104805;1260;63397;-60
2024/03/14 06:49:20;;;;;;;8.40;7.60;;;;;;;10.37;50.01;99789.35;105436;1250;60185;-61
2024/03/14 06:51:55;;;;;;;8.90;8.00;;;;;;;10.30;50.49;99803.61;104954;1257;72903;-60
2024/03/14 06:54:26;;;;;;;11.40;8.60;;;;;;;10.29;49.95;99804.70;105690;1251;69327;-61
2024/03/14 06:57:39;;;;;;;12.90;8.60;;;;;;;10.21;50.45;99805.87;105127;1253;73571;-63
2024/03/14 07:00:13;;;;;;;10.70;9.60;;;;;;;10.23;50.56;99798.11;104668;1266;61759;-62
2024/03/14 07:02:43;;;;;;;11.80;9.50;;;;;;;10.31;50.50;99797.98;105207;1251;61471;-62
2024/03/14 07:06:30;;;;;;;11.50;9.50;;;;;;;10.26;50.61;99797.28;105219;1251;74298;-61
2024/03/14 07:09:00;;;;;;;9.50;8.60;;;;;;;10.31;50.96;99787.61;105584;1250;69492;-62
2024/03/14 07:12:23;;;;;;;13.60;10.40;;;;;;;10.34;50.82;99787.02;105355;1250;73111;-61
2024/03/14 07:15:03;;;;;;;13.00;11.00;;;;;;;10.28;51.12;99788.27;105323;1252;59977;-61
2024/03/14 07:17:33;;;;;;;13.00;11.20;;;;;;;10.33;50.97;99794.22;105226;1251;61140;-62
2024/03/14 07:21:14;;;;;;;11.30;10.20;;;;;;;10.42;51.07;99793.89;107435;1250;73598;-60
2024/03/14 07:23:47;;;;;;;13.40;11.00;;;;;;;10.49;50.89;99796.39;106064;1253;69376;-61
2024/03/14 07:26:53;;;;;;;13.10;11.40;;;;;;;10.44;50.75;99798.18;105458;1257;72580;-62
2024/03/14 07:29:26;;;;;;;12.70;11.30;;;;;;;10.56;50.24;99797.71;105099;1251;61496;-62
2024/03/14 07:32:03;;;;;;;13.80;12.10;;;;;;;10.69;49.87;99801.36;106923;1250;60581;-63
2024/03/14 07:34:31;;;;;;;13.60;12.20;;;;;;;10.70;50.13;99803.45;106038;1250;74020;-64
2024/03/14 07:37:32;;;;;;;13.50;12.10;;;;;;;10.75;50.12;99810.27;105302;1252;69604;-63
2024/03/14 07:39:59;;;;;;;13.10;11.80;;;;;;;10.73;49.96;99808.58;105892;1250;73506;-64
2024/03/14 07:43:03;;;;;;;13.30;11.90;;;;;;;10.90;49.29;99810.51;105080;1253;62510;-64
2024/03/14 07:46:09;;;;;;;13.30;12.00;;;;;;;10.60;49.87;99809.47;104855;1253;61689;-63
2024/03/14 07:49:20;;;;;;;13.90;11.60;;;;;;;10.45;50.22;99811.46;106107;1251;74052;-63
2024/03/14 07:51:55;;;;;;;16.20;11.60;;;;;;;10.29;51.13;99812.79;105508;1250;70390;-63
2024/03/14 07:54:59;;;;;;;14.20;12.20;;;;;;;10.32;50.98;99817.05;105400;1251;72668;-64
2024/03/14 07:58:11;;;;;;;11.70;10.50;;;;;;;10.40;51.27;99807.11;105532;1254;61572;-61
2024/03/14 08:01:22;;;;;;;12.70;11.00;;;;;;;10.43;50.75;99814.86;104657;1257;59662;-62
2024/03/14 08:04:03;;;;;;;13.10;11.50;;;;;;;10.46;51.20;99816.31;105603;1251;72839;-61
2024/03/14 08:06:35;;;;;;;13.60;12.20;;;;;;;10.47;51.15;99818.91;106697;1253;68991;-61
2024/03/14 08:09:04;;;;;;;14.90;13.30;;;;;;;10.42;51.29;99820.54;106408;1256;72137;-61
2024/03/14 08:12:09;;;;;;;16.40;14.20;;;;;;;10.57;51.60;99821.01;105464;1251;61001;-61
2024/03/14 08:14:44;;;;;;;15.60;13.90;;;;;;;10.59;51.67;99823.19;107001;1253;61763;-60
2024/03/14 08:17:48;;;;;;;17.30;15.20;;;;;;;10.55;51.88;99818.60;106261;1254;74579;-64
2024/03/14 08:20:16;;;;;;;19.10;14.70;;;;;;;10.54;51.90;99817.59;105418;1256;70757;-60
2024/03/14 08:23:21;;;;;;;21.60;17.30;;;;;;;10.71;51.86;99819.36;105265;1257;72263;-61
2024/03/14 08:26:26;;;;;;;23.70;16.30;;;;;;;11.01;51.38;99817.10;106589;1254;61748;-62
2024/03/14 08:28:54;;;;;;;21.30;17.30;;;;;;;10.69;52.07;99821.73;105957;1252;60550;-64
2024/03/14 08:31:22;;;;;;;24.30;19.20;;;;;;;10.66;52.75;99823.59;106004;1254;73713;-63
2024/03/14 08:34:31;;;;;;;21.60;19.20;;;;;;;10.75;52.73;99825.16;104500;1260;69458;-62
2024/03/14 08:37:45;;;;;;;24.60;19.90;;;;;;;11.24;51.70;99821.86;105180;1253;72464;-62
2024/03/14 08:40:37;;;;;;;28.30;19.90;;;;;;;11.17;51.18;99815.69;105262;1250;61461;-63
2024/03/14 08:43:05;;;;;;;24.80;21.00;;;;;;;11.13;50.88;99816.77;105202;1254;60459;-62
2024/03/14 08:45:38;;;;;;;23.80;19.20;;;;;;;11.01;51.08;99810.06;106874;1250;73763;-68
2024/03/14 08:48:46;;;;;;;20.70;17.70;;;;;;;11.03;50.92;99813.13;105399;1257;69219;-63
2024/03/14 08:51:24;;;;;;;21.10;18.60;;;;;;;10.98;50.74;99813.52;105810;1251;72935;-69
2024/03/14 08:56:47;;;;;;;21.90;18.00;;;;;;;10.90;50.99;99811.90;105045;1251;60587;-68
2024/03/14 08:59:15;;;;;;;21.50;16.80;;;;;;;11.03;51.03;99811.22;105077;1251;73710;-68
2024/03/14 09:02:59;;;;;;;19.70;17.70;;;;;;;10.95;51.31;99819.58;105300;1253;70864;-67
2024/03/14 09:05:32;;;;;;;15.30;13.50;;;;;;;11.07;51.64;99818.60;105763;1257;73584;-67
2024/03/14 09:08:43;;;;;;;14.30;12.90;;;;;;;11.28;51.36;99816.48;105550;1258;60575;-68
2024/03/14 09:11:52;;;;;;;14.80;13.20;;;;;;;11.53;50.83;99812.59;104962;1256;59374;-67
2024/03/14 09:14:27;;;;;;;14.90;12.60;;;;;;;11.72;49.55;99808.55;105811;1251;75410;-68
2024/03/14 09:17:36;;;;;;;14.60;13.00;;;;;;;11.70;49.32;99806.05;104879;1257;70324;-66
2024/03/14 09:20:35;;;;;;;14.10;12.60;;;;;;;11.82;49.11;99804.63;104476;1267;71358;-64
2024/03/14 09:23:04;;;;;;;13.50;12.00;;;;;;;11.67;48.85;99806.52;106607;1254;61069;-64
2024/03/14 09:26:31;;;;;;;15.20;12.70;;;;;;;11.63;49.09;99809.69;106014;1257;60466;-64
2024/03/14 09:29:06;;;;;;;15.60;11.20;;;;;;;11.77;49.23;99808.71;104713;1254;73731;-65
2024/03/14 09:32:11;;;;;;;12.50;11.30;;;;;;;11.85;49.49;99807.48;106090;1254;69550;-64
2024/03/14 09:34:45;;;;;;;12.20;10.80;;;;;;;11.95;48.89;99811.97;106149;1254;72278;-65
2024/03/14 09:37:25;;;;;;;13.50;10.90;;;;;;;11.85;48.64;99809.94;106080;1250;60900;-67
2024/03/14 09:39:54;;;;;;;13.40;11.10;;;;;;;11.89;48.87;99811.67;106236;1251;60612;-65
2024/03/14 09:42:32;;;;;;;12.00;10.80;;;;;;;11.80;48.63;99808.40;106595;1252;74557;-65
2024/03/14 09:45:33;;;;;;;11.70;10.50;;;;;;;11.76;49.01;99808.23;105468;1254;70808;-70
2024/03/14 09:48:01;;;;;;;13.20;11.10;;;;;;;11.76;49.15;99804.34;105320;1251;72633;-67
2024/03/14 09:50:31;;;;;;;12.10;10.30;;;;;;;11.84;49.50;99805.06;105486;1251;62321;-62
2024/03/14 09:53:37;;;;;;;15.20;10.20;;;;;;;12.08;48.81;99803.63;106257;1251;60156;-62
2024/03/14 09:56:11;;;;;;;11.10;9.90;;;;;;;12.11;48.49;99805.26;105029;1254;73896;-62
2024/03/14 09:59:55;;;;;;;10.60;9.50;;;;;;;12.16;48.24;99805.37;107563;1254;69132;-60
2024/03/14 10:02:26;;;;;;;10.30;9.30;;;;;;;12.24;48.36;99808.17;107921;1251;73796;-62
2024/03/14 10:06:18;;;;;;;10.90;9.40;;;;;;;12.32;48.32;99808.34;106479;1251;60953;-62
2024/03/14 10:09:25;;;;;;;10.70;9.30;;;;;;;12.40;47.90;99806.19;105633;1251;60532;-61
2024/03/14 10:12:36;;;;;;;10.20;9.30;;;;;;;12.25;47.39;99800.72;105610;1251;73912;-61
2024/03/14 10:15:16;;;;;;;10.40;9.30;;;;;;;12.43;47.56;99800.95;106543;1252;69581;-61
2024/03/14 10:17:53;;;;;;;10.80;9.30;;;;;;;12.50;47.29;99800.97;106064;1254;72552;-61
2024/03/14 10:20:33;;;;;;;9.90;9.00;;;;;;;12.54;47.11;99799.71;105870;1256;61128;-63
2024/03/14 10:23:08;;;;;;;12.40;9.50;;;;;;;12.72;46.70;99794.27;105643;1251;60824;-60
2024/03/14 10:29:14;;;;;;;9.40;8.10;;;;;;;12.68;46.09;99796.39;105378;1254;71078;-66
2024/03/14 10:32:27;;;;;;;10.50;9.40;;;;;;;12.71;46.17;99798.33;105636;1251;73481;-62
2024/03/14 10:35:14;;;;;;;9.90;8.70;;;;;;;12.63;45.90;99791.00;105597;1252;61478;-61
2024/03/14 10:38:33;;;;;;;9.20;8.30;;;;;;;12.68;46.13;99796.59;105408;1256;61092;-61
2024/03/14 10:41:43;;;;;;;10.20;8.80;;;;;;;12.66;46.22;99799.48;105387;1251;74778;-61
2024/03/14 10:55:10;;;;;;;10.30;8.30;;;;;;;11.78;47.70;99790.89;105988;1251;60532;-62
2024/03/14 10:58:18;;;;;;;12.20;9.20;;;;;;;11.74;47.86;99787.27;105409;1251;73684;-63
2024/03/14 11:01:31;;;;;;;10.90;8.70;;;;;;;11.67;48.64;99788.77;105998;1256;69891;-62
2024/03/14 11:04:44;;;;;;;10.10;9.00;;;;;;;12.30;47.54;99786.24;104484;1251;72122;-61
2024/03/14 11:10:46;;;;;;;14.30;8.80;;;;;;;12.52;46.49;99788.05;105458;1251;60462;-63
2024/03/14 11:13:58;;;;;;;9.20;8.30;;;;;;;12.56;46.47;99779.04;104787;1259;75162;-63
2024/03/14 11:17:14;;;;;;;11.10;7.20;;;;;;;12.76;45.58;99788.76;104697;1251;70849;-63
2024/03/14 11:19:50;;;;;;;8.80;7.40;;;;;;;12.68;45.48;99789.91;105198;1254;73530;-63
2024/03/14 11:23:02;;;;;;;9.20;7.80;;;;;;;12.57;45.32;99788.98;105323;1251;60571;-63
2024/03/14 11:25:31;;;;;;;8.10;7.30;;;;;;;12.13;45.97;99793.93;104851;1253;60454;-65
2024/03/14 11:28:22;;;;;;;13.30;10.30;;;;;;;12.08;46.53;99799.92;105110;1258;73441;-63
2024/03/14 11:30:56;;;;;;;29.10;17.70;;;;;;;12.29;46.07;99798.24;104472;1256;70140;-63
2024/03/14 11:34:08;;;;;;;36.40;23.90;;;;;;;12.11;46.44;99801.00;104976;1254;72855;-63
2024/03/14 11:40:37;;;;;;;400.00;202.30;;;;;;;12.28;46.33;99792.49;105866;1254;60080;-62
2024/03/14 11:43:06;;;;;;;394.60;197.00;;;;;;;12.22;46.25;99793.69;105156;1251;74129;-62
2024/03/14 11:45:37;;;;;;;;;;;;;;;12.80;45.50;99787.38;105227;1260;70834;-61
2024/03/14 11:48:08;;;;;;;143.90;72.90;;;;;;;12.43;45.82;99787.91;105840;1252;74387;-61
2024/03/14 11:54:50;;;;;;;32.40;20.00;;;;;;;12.20;46.08;99790.75;104737;1273;59994;-60
2024/03/14 11:57:18;;;;;;;41.50;22.70;;;;;;;12.15;45.80;99790.13;105162;1254;74151;-60
2024/03/14 12:00:32;;;;;;;23.30;14.80;;;;;;;12.18;46.17;99786.11;105784;1254;69423;-61
2024/03/14 12:03:15;;;;;;;21.40;10.70;;;;;;;12.23;45.53;99780.99;105337;1254;72727;-61
2024/03/14 12:05:42;;;;;;;106.80;38.70;;;;;;;12.41;45.22;99779.05;105784;1251;60988;-61
2024/03/14 12:08:13;;;;;;;29.70;14.40;;;;;;;12.23;45.52;99772.91;105946;1252;60484;-61
2024/03/14 12:10:52;;;;;;;20.30;10.60;;;;;;;12.24;45.88;99783.91;104639;1268;73612;-60
2024/03/14 12:13:26;;;;;;;13.60;9.50;;;;;;;12.29;45.92;99789.27;106711;1251;70146;-61
2024/03/14 12:22:58;;;;;;;15.40;7.40;;;;;;;12.13;45.61;99785.65;106038;1251;61500;-62
2024/03/14 12:26:12;;;;;;;8.20;7.10;;;;;;;12.15;45.77;99781.00;105470;1254;73863;-60
2024/03/14 12:46:53;;;;;;;8.60;6.80;;;;;;;12.40;44.35;99784.20;105631;1251;69991;-62
2024/03/14 12:50:06;;;;;;;8.90;5.90;;;;;;;12.16;44.55;99777.08;105389;1254;73260;-61
2024/03/14 12:56:08;;;;;;;7.20;5.90;;;;;;;12.48;43.70;99787.82;105874;1251;60494;-62
2024/03/14 12:59:20;;;;;;;7.10;6.20;;;;;;;12.46;43.42;99787.75;105034;1255;74988;-62
2024/03/14 13:01:53;;;;;;;9.50;6.20;;;;;;;12.22;43.96;99790.00;105262;1256;70067;-62
2024/03/14 13:04:27;;;;;;;8.10;6.10;;;;;;;12.25;44.06;99788.79;105591;1251;72711;-62
2024/03/14 13:07:41;;;;;;;8.90;6.70;;;;;;;12.27;43.99;99793.05;105960;1254;60573;-61
2024/03/14 13:10:09;;;;;;;7.00;6.00;;;;;;;12.28;44.13;99791.11;105580;1250;60450;-62
2024/03/14 13:12:43;;;;;;;9.70;6.10;;;;;;;12.25;44.11;99792.46;105468;1254;73589;-61
2024/03/14 13:15:57;;;;;;;7.30;6.60;;;;;;;12.65;43.25;99794.23;105994;1251;70017;-61
2024/03/14 13:18:24;;;;;;;9.40;5.90;;;;;;;12.26;43.42;99795.44;105917;1251;73274;-62
2024/03/14 13:20:57;;;;;;;7.40;6.50;;;;;;;12.15;43.69;99792.40;105713;1255;60113;-60
2024/03/14 13:24:09;;;;;;;10.30;6.70;;;;;;;12.05;43.72;99797.27;106090;1250;60444;-60
2024/03/14 13:26:53;;;;;;;7.80;6.50;;;;;;;12.34;42.75;99796.46;105504;1254;73275;-61
2024/03/14 13:29:26;;;;;;;5.60;5.20;;;;;;;12.67;42.53;99792.02;106400;1250;70159;-59
2024/03/14 13:32:37;;;;;;;8.80;6.10;;;;;;;12.76;42.18;99792.66;106150;1251;72651;-59
2024/03/14 13:35:47;;;;;;;7.90;6.00;;;;;;;12.82;42.30;99793.09;105056;1255;60514;-62
2024/03/14 13:38:37;;;;;;;11.10;6.20;;;;;;;12.86;42.32;99798.33;106048;1256;60562;-61
2024/03/14 13:41:30;;;;;;;8.30;5.50;;;;;;;12.88;42.21;99797.02;106004;1251;73645;-59
2024/03/14 13:44:25;;;;;;;9.40;5.70;;;;;;;12.92;42.02;99791.00;105081;1259;69578;-60
2024/03/14 14:01:25;;;;;;;6.10;5.40;;;;;;;12.72;41.81;99790.40;106330;1251;69642;-62
2024/03/14 14:04:36;;;;;;;9.70;6.00;;;;;;;12.81;41.57;99791.18;105297;1253;72778;-60
2024/03/14 14:07:46;;;;;;;7.10;5.90;;;;;;;12.49;41.94;99793.44;104842;1257;60543;-60
2024/03/14 14:10:21;;;;;;;8.40;5.70;;;;;;;12.73;41.59;99791.39;106364;1251;60420;-60
2024/03/14 14:12:48;;;;;;;6.70;6.00;;;;;;;12.81;41.53;99788.34;105299;1254;74256;-60
2024/03/14 14:15:16;;;;;;;6.70;5.90;;;;;;;12.83;41.34;99790.20;106037;1254;69712;-60
2024/03/14 14:18:33;;;;;;;7.00;6.00;;;;;;;12.80;41.32;99789.98;106792;1254;72719;-60
2024/03/14 14:21:00;;;;;;;8.00;5.60;;;;;;;12.82;41.23;99792.00;108398;1251;59693;-61
2024/03/14 14:24:11;;;;;;;9.00;5.50;;;;;;;12.77;41.13;99792.61;105966;1265;60303;-62
2024/03/14 14:26:38;;;;;;;7.20;5.40;;;;;;;12.82;41.02;99791.84;107285;1250;73808;-60
2024/03/14 14:29:07;;;;;;;8.30;6.10;;;;;;;13.32;40.27;99790.04;106628;1254;69513;-60
2024/03/14 14:32:18;;;;;;;7.40;5.70;;;;;;;13.66;39.72;99788.80;105861;1257;72967;-60